sensor_id;sensor_type;location;lat;lon;timestamp;temperature;humidity
64874;HTU21D;51367;45.204;38.576;2023-08-08T00:02:16;23.73;72.73
64874;HTU21D;51367;45.204;38.576;2023-08-08T00:04:42;23.66;72.88
64874;HTU21D;51367;45.204;38.576;2023-08-08T00:07:08;23.62;73.05
64874;HTU21D;51367;45.204;38.576;2023-08-08T00:09:34;23.62;73.16
64874;HTU21D;51367;45.204;38.576;2023-08-08T00:12:00;23.66;73.19
64874;HTU21D;51367;45.204;38.576;2023-08-08T00:14:26;23.70;73.19
64874;HTU21D;51367;45.204;38.576;2023-08-08T00:16:52;23.73;73.14
64874;HTU21D;51367;45.204;38.576;2023-08-08T00:19:18;23.79;73.15
64874;HTU21D;51367;45.204;38.576;2023-08-08T00:21:44;23.83;73.11
64874;HTU21D;51367;45.204;38.576;2023-08-08T00:24:10;23.84;73.12
64874;HTU21D;51367;45.204;38.576;2023-08-08T00:26:36;23.85;73.12
64874;HTU21D;51367;45.204;38.576;2023-08-08T00:29:02;23.87;73.13
64874;HTU21D;51367;45.204;38.576;2023-08-08T00:31:28;23.88;73.15
64874;HTU21D;51367;45.204;38.576;2023-08-08T00:33:54;23.88;73.16
64874;HTU21D;51367;45.204;38.576;2023-08-08T00:36:20;23.85;73.19
64874;HTU21D;51367;45.204;38.576;2023-08-08T00:38:46;23.83;73.22
64874;HTU21D;51367;45.204;38.576;2023-08-08T00:41:12;23.82;73.32
64874;HTU21D;51367;45.204;38.576;2023-08-08T00:43:38;23.82;73.34
64874;HTU21D;51367;45.204;38.576;2023-08-08T00:46:04;23.79;73.35
64874;HTU21D;51367;45.204;38.576;2023-08-08T00:48:31;23.77;73.39
64874;HTU21D;51367;45.204;38.576;2023-08-08T00:50:59;23.76;73.43
64874;HTU21D;51367;45.204;38.576;2023-08-08T00:53:25;23.74;73.48
64874;HTU21D;51367;45.204;38.576;2023-08-08T00:55:54;23.73;73.51
64874;HTU21D;51367;45.204;38.576;2023-08-08T00:58:20;23.72;73.50
64874;HTU21D;51367;45.204;38.576;2023-08-08T01:00:46;23.66;73.56
64874;HTU21D;51367;45.204;38.576;2023-08-08T01:03:12;23.58;73.77
64874;HTU21D;51367;45.204;38.576;2023-08-08T01:05:46;23.55;73.99
64874;HTU21D;51367;45.204;38.576;2023-08-08T01:08:16;23.49;74.02
64874;HTU21D;51367;45.204;38.576;2023-08-08T01:10:45;23.42;74.09
64874;HTU21D;51367;45.204;38.576;2023-08-08T01:13:22;23.39;74.26
64874;HTU21D;51367;45.204;38.576;2023-08-08T01:15:50;23.34;74.28
64874;HTU21D;51367;45.204;38.576;2023-08-08T01:18:16;23.32;74.34
64874;HTU21D;51367;45.204;38.576;2023-08-08T01:20:44;23.31;74.31
64874;HTU21D;51367;45.204;38.576;2023-08-08T01:23:18;23.24;74.39
64874;HTU21D;51367;45.204;38.576;2023-08-08T01:25:46;23.18;74.57
64874;HTU21D;51367;45.204;38.576;2023-08-08T01:28:13;23.14;74.63
64874;HTU21D;51367;45.204;38.576;2023-08-08T01:30:39;23.10;74.78
64874;HTU21D;51367;45.204;38.576;2023-08-08T01:33:07;23.09;74.84
64874;HTU21D;51367;45.204;38.576;2023-08-08T01:35:38;23.08;74.85
64874;HTU21D;51367;45.204;38.576;2023-08-08T01:38:14;23.07;74.82
64874;HTU21D;51367;45.204;38.576;2023-08-08T01:40:47;23.03;74.80
64874;HTU21D;51367;45.204;38.576;2023-08-08T01:43:15;23.05;74.81
64874;HTU21D;51367;45.204;38.576;2023-08-08T01:45:41;23.06;74.80
64874;HTU21D;51367;45.204;38.576;2023-08-08T01:48:09;23.07;74.76
64874;HTU21D;51367;45.204;38.576;2023-08-08T01:50:36;23.08;74.71
64874;HTU21D;51367;45.204;38.576;2023-08-08T01:53:03;23.09;74.70
64874;HTU21D;51367;45.204;38.576;2023-08-08T01:55:30;23.09;74.69
64874;HTU21D;51367;45.204;38.576;2023-08-08T01:57:56;23.07;74.66
64874;HTU21D;51367;45.204;38.576;2023-08-08T02:00:23;23.03;74.77
64874;HTU21D;51367;45.204;38.576;2023-08-08T02:02:49;23.00;74.83
64874;HTU21D;51367;45.204;38.576;2023-08-08T02:05:15;22.95;74.98
64874;HTU21D;51367;45.204;38.576;2023-08-08T02:07:41;22.91;75.08
64874;HTU21D;51367;45.204;38.576;2023-08-08T02:10:07;22.90;75.15
64874;HTU21D;51367;45.204;38.576;2023-08-08T02:12:33;22.92;75.18
64874;HTU21D;51367;45.204;38.576;2023-08-08T02:14:59;22.93;75.18
64874;HTU21D;51367;45.204;38.576;2023-08-08T02:17:25;22.93;75.15
64874;HTU21D;51367;45.204;38.576;2023-08-08T02:19:52;22.94;75.11
64874;HTU21D;51367;45.204;38.576;2023-08-08T02:22:19;22.93;75.12
64874;HTU21D;51367;45.204;38.576;2023-08-08T02:24:44;22.93;75.14
64874;HTU21D;51367;45.204;38.576;2023-08-08T02:27:11;22.94;75.14
64874;HTU21D;51367;45.204;38.576;2023-08-08T02:29:37;22.90;75.18
64874;HTU21D;51367;45.204;38.576;2023-08-08T02:32:04;22.86;75.31
64874;HTU21D;51367;45.204;38.576;2023-08-08T02:34:30;22.86;75.35
64874;HTU21D;51367;45.204;38.576;2023-08-08T02:36:56;22.86;75.34
64874;HTU21D;51367;45.204;38.576;2023-08-08T02:39:22;22.82;75.47
64874;HTU21D;51367;45.204;38.576;2023-08-08T02:41:47;22.82;75.61
64874;HTU21D;51367;45.204;38.576;2023-08-08T02:44:14;22.84;75.61
64874;HTU21D;51367;45.204;38.576;2023-08-08T02:46:40;22.79;75.68
64874;HTU21D;51367;45.204;38.576;2023-08-08T02:49:06;22.77;75.87
64874;HTU21D;51367;45.204;38.576;2023-08-08T02:51:32;22.79;75.89
64874;HTU21D;51367;45.204;38.576;2023-08-08T02:53:58;22.86;75.78
64874;HTU21D;51367;45.204;38.576;2023-08-08T02:56:24;22.90;75.66
64874;HTU21D;51367;45.204;38.576;2023-08-08T02:58:52;22.92;75.67
64874;HTU21D;51367;45.204;38.576;2023-08-08T03:01:19;22.95;75.72
64874;HTU21D;51367;45.204;38.576;2023-08-08T03:03:46;22.96;75.78
64874;HTU21D;51367;45.204;38.576;2023-08-08T03:06:13;22.94;75.89
64874;HTU21D;51367;45.204;38.576;2023-08-08T03:08:39;22.93;76.04
64874;HTU21D;51367;45.204;38.576;2023-08-08T03:11:05;22.97;76.12
64874;HTU21D;51367;45.204;38.576;2023-08-08T03:13:32;23.08;76.10
64874;HTU21D;51367;45.204;38.576;2023-08-08T03:15:58;23.20;76.00
64874;HTU21D;51367;45.204;38.576;2023-08-08T03:18:24;23.31;75.86
64874;HTU21D;51367;45.204;38.576;2023-08-08T03:20:52;23.39;75.81
64874;HTU21D;51367;45.204;38.576;2023-08-08T03:23:19;23.46;75.79
64874;HTU21D;51367;45.204;38.576;2023-08-08T03:25:45;23.53;75.83
64874;HTU21D;51367;45.204;38.576;2023-08-08T03:28:13;23.61;75.81
64874;HTU21D;51367;45.204;38.576;2023-08-08T03:30:39;23.74;75.76
64874;HTU21D;51367;45.204;38.576;2023-08-08T03:33:07;23.88;75.66
64874;HTU21D;51367;45.204;38.576;2023-08-08T03:35:33;24.03;75.53
64874;HTU21D;51367;45.204;38.576;2023-08-08T03:38:00;24.19;75.44
64874;HTU21D;51367;45.204;38.576;2023-08-08T03:40:26;24.32;75.38
64874;HTU21D;51367;45.204;38.576;2023-08-08T03:42:52;24.49;75.31
64874;HTU21D;51367;45.204;38.576;2023-08-08T03:45:18;24.69;75.14
64874;HTU21D;51367;45.204;38.576;2023-08-08T03:47:44;24.89;74.86
64874;HTU21D;51367;45.204;38.576;2023-08-08T03:50:11;25.03;74.68
64874;HTU21D;51367;45.204;38.576;2023-08-08T03:52:37;25.19;74.55
64874;HTU21D;51367;45.204;38.576;2023-08-08T03:55:08;25.33;74.52
64874;HTU21D;51367;45.204;38.576;2023-08-08T03:57:34;25.48;74.43
64874;HTU21D;51367;45.204;38.576;2023-08-08T04:00:00;25.61;74.31
64874;HTU21D;51367;45.204;38.576;2023-08-08T04:02:26;25.74;74.18
64874;HTU21D;51367;45.204;38.576;2023-08-08T04:04:53;25.89;73.99
64874;HTU21D;51367;45.204;38.576;2023-08-08T04:07:19;26.01;73.81
64874;HTU21D;51367;45.204;38.576;2023-08-08T04:09:45;26.10;73.64
64874;HTU21D;51367;45.204;38.576;2023-08-08T04:12:11;26.20;73.51
64874;HTU21D;51367;45.204;38.576;2023-08-08T04:14:37;26.25;73.45
64874;HTU21D;51367;45.204;38.576;2023-08-08T04:17:04;26.34;73.44
64874;HTU21D;51367;45.204;38.576;2023-08-08T04:19:30;26.39;73.44
64874;HTU21D;51367;45.204;38.576;2023-08-08T04:21:56;26.48;73.44
64874;HTU21D;51367;45.204;38.576;2023-08-08T04:24:22;26.53;73.51
64874;HTU21D;51367;45.204;38.576;2023-08-08T04:26:48;26.62;73.54
64874;HTU21D;51367;45.204;38.576;2023-08-08T04:29:13;26.70;73.48
64874;HTU21D;51367;45.204;38.576;2023-08-08T04:31:39;26.79;73.37
64874;HTU21D;51367;45.204;38.576;2023-08-08T04:34:05;26.90;73.26
64874;HTU21D;51367;45.204;38.576;2023-08-08T04:36:31;27.00;73.12
64874;HTU21D;51367;45.204;38.576;2023-08-08T04:38:57;27.08;73.04
64874;HTU21D;51367;45.204;38.576;2023-08-08T04:41:23;27.19;72.97
64874;HTU21D;51367;45.204;38.576;2023-08-08T04:43:49;27.27;72.87
64874;HTU21D;51367;45.204;38.576;2023-08-08T04:46:15;27.37;72.80
64874;HTU21D;51367;45.204;38.576;2023-08-08T04:48:41;27.44;72.77
64874;HTU21D;51367;45.204;38.576;2023-08-08T04:51:08;27.52;72.73
64874;HTU21D;51367;45.204;38.576;2023-08-08T04:53:34;27.55;72.74
64874;HTU21D;51367;45.204;38.576;2023-08-08T04:56:00;27.55;72.77
64874;HTU21D;51367;45.204;38.576;2023-08-08T04:58:26;27.61;72.76
64874;HTU21D;51367;45.204;38.576;2023-08-08T05:00:52;27.69;72.65
64874;HTU21D;51367;45.204;38.576;2023-08-08T05:03:18;27.73;72.51
64874;HTU21D;51367;45.204;38.576;2023-08-08T05:05:44;27.79;72.38
64874;HTU21D;51367;45.204;38.576;2023-08-08T05:08:13;27.86;72.20
64874;HTU21D;51367;45.204;38.576;2023-08-08T05:10:39;27.90;72.03
64874;HTU21D;51367;45.204;38.576;2023-08-08T05:13:05;27.95;71.85
64874;HTU21D;51367;45.204;38.576;2023-08-08T05:15:31;27.98;71.75
64874;HTU21D;51367;45.204;38.576;2023-08-08T05:17:57;28.01;71.61
64874;HTU21D;51367;45.204;38.576;2023-08-08T05:20:23;28.04;71.54
64874;HTU21D;51367;45.204;38.576;2023-08-08T05:22:49;28.14;71.38
64874;HTU21D;51367;45.204;38.576;2023-08-08T05:25:15;28.26;71.16
64874;HTU21D;51367;45.204;38.576;2023-08-08T05:27:41;28.34;70.90
64874;HTU21D;51367;45.204;38.576;2023-08-08T05:30:07;28.43;70.69
64874;HTU21D;51367;45.204;38.576;2023-08-08T05:32:33;28.55;70.40
64874;HTU21D;51367;45.204;38.576;2023-08-08T05:34:59;28.63;70.06
64874;HTU21D;51367;45.204;38.576;2023-08-08T05:37:26;28.74;69.81
64874;HTU21D;51367;45.204;38.576;2023-08-08T05:39:53;28.83;69.49
64874;HTU21D;51367;45.204;38.576;2023-08-08T05:42:19;28.93;68.97
64874;HTU21D;51367;45.204;38.576;2023-08-08T05:44:45;29.02;68.33
64874;HTU21D;51367;45.204;38.576;2023-08-08T05:47:11;29.14;68.04
64874;HTU21D;51367;45.204;38.576;2023-08-08T05:49:38;29.21;67.91
64874;HTU21D;51367;45.204;38.576;2023-08-08T05:52:05;29.36;67.78
64874;HTU21D;51367;45.204;38.576;2023-08-08T05:54:31;29.47;67.23
64874;HTU21D;51367;45.204;38.576;2023-08-08T05:56:56;29.56;66.30
64874;HTU21D;51367;45.204;38.576;2023-08-08T05:59:22;29.58;65.91
64874;HTU21D;51367;45.204;38.576;2023-08-08T06:01:48;29.63;65.53
64874;HTU21D;51367;45.204;38.576;2023-08-08T06:04:14;29.74;65.47
64874;HTU21D;51367;45.204;38.576;2023-08-08T06:06:40;29.86;65.27
64874;HTU21D;51367;45.204;38.576;2023-08-08T06:09:06;30.02;64.57
64874;HTU21D;51367;45.204;38.576;2023-08-08T06:11:34;30.24;64.16
64874;HTU21D;51367;45.204;38.576;2023-08-08T06:14:00;30.42;62.93
64874;HTU21D;51367;45.204;38.576;2023-08-08T06:16:26;30.61;62.34
64874;HTU21D;51367;45.204;38.576;2023-08-08T06:18:53;30.83;61.10
64874;HTU21D;51367;45.204;38.576;2023-08-08T06:21:19;31.04;60.94
64874;HTU21D;51367;45.204;38.576;2023-08-08T06:23:44;31.28;60.45
64874;HTU21D;51367;45.204;38.576;2023-08-08T06:26:10;31.49;59.43
64874;HTU21D;51367;45.204;38.576;2023-08-08T06:28:36;31.64;58.37
64874;HTU21D;51367;45.204;38.576;2023-08-08T06:31:02;31.76;57.65
64874;HTU21D;51367;45.204;38.576;2023-08-08T06:33:28;31.81;57.13
64874;HTU21D;51367;45.204;38.576;2023-08-08T06:35:56;31.86;56.58
64874;HTU21D;51367;45.204;38.576;2023-08-08T06:38:21;31.87;55.71
64874;HTU21D;51367;45.204;38.576;2023-08-08T06:40:47;31.84;55.53
64874;HTU21D;51367;45.204;38.576;2023-08-08T06:43:13;31.82;54.99
64874;HTU21D;51367;45.204;38.576;2023-08-08T06:45:39;31.81;54.88
64874;HTU21D;51367;45.204;38.576;2023-08-08T06:48:05;31.87;54.33
64874;HTU21D;51367;45.204;38.576;2023-08-08T06:50:31;31.97;54.13
64874;HTU21D;51367;45.204;38.576;2023-08-08T06:52:57;32.09;53.91
64874;HTU21D;51367;45.204;38.576;2023-08-08T06:55:23;32.20;52.91
64874;HTU21D;51367;45.204;38.576;2023-08-08T06:57:50;32.26;52.34
64874;HTU21D;51367;45.204;38.576;2023-08-08T07:00:16;32.29;52.62
64874;HTU21D;51367;45.204;38.576;2023-08-08T07:02:41;32.37;52.36
64874;HTU21D;51367;45.204;38.576;2023-08-08T07:05:08;32.50;52.29
64874;HTU21D;51367;45.204;38.576;2023-08-08T07:07:35;32.69;52.07
64874;HTU21D;51367;45.204;38.576;2023-08-08T07:10:03;32.86;51.69
64874;HTU21D;51367;45.204;38.576;2023-08-08T07:12:29;32.97;50.85
64874;HTU21D;51367;45.204;38.576;2023-08-08T07:14:55;33.00;50.84
64874;HTU21D;51367;45.204;38.576;2023-08-08T07:17:21;33.04;50.41
64874;HTU21D;51367;45.204;38.576;2023-08-08T07:19:47;33.11;49.98
64874;HTU21D;51367;45.204;38.576;2023-08-08T07:22:13;33.15;49.72
64874;HTU21D;51367;45.204;38.576;2023-08-08T07:24:39;33.20;49.76
64874;HTU21D;51367;45.204;38.576;2023-08-08T07:27:05;33.27;49.84
64874;HTU21D;51367;45.204;38.576;2023-08-08T07:29:31;33.28;49.95
64874;HTU21D;51367;45.204;38.576;2023-08-08T07:31:58;33.36;50.05
64874;HTU21D;51367;45.204;38.576;2023-08-08T07:34:24;33.48;49.65
64874;HTU21D;51367;45.204;38.576;2023-08-08T07:36:50;33.58;49.02
64874;HTU21D;51367;45.204;38.576;2023-08-08T07:39:16;33.70;48.43
64874;HTU21D;51367;45.204;38.576;2023-08-08T07:41:44;33.76;48.13
64874;HTU21D;51367;45.204;38.576;2023-08-08T07:44:10;33.81;48.22
64874;HTU21D;51367;45.204;38.576;2023-08-08T07:46:35;33.91;48.41
64874;HTU21D;51367;45.204;38.576;2023-08-08T07:49:01;34.04;47.79
64874;HTU21D;51367;45.204;38.576;2023-08-08T07:51:29;34.12;47.84
64874;HTU21D;51367;45.204;38.576;2023-08-08T07:53:56;34.27;47.38
64874;HTU21D;51367;45.204;38.576;2023-08-08T07:56:22;34.36;47.33
64874;HTU21D;51367;45.204;38.576;2023-08-08T07:58:48;34.47;47.03
64874;HTU21D;51367;45.204;38.576;2023-08-08T08:01:14;34.49;46.88
64874;HTU21D;51367;45.204;38.576;2023-08-08T08:03:40;34.51;47.12
64874;HTU21D;51367;45.204;38.576;2023-08-08T08:06:07;34.51;46.86
64874;HTU21D;51367;45.204;38.576;2023-08-08T08:08:33;34.49;46.96
64874;HTU21D;51367;45.204;38.576;2023-08-08T08:11:00;34.56;46.76
64874;HTU21D;51367;45.204;38.576;2023-08-08T08:13:26;34.59;46.57
64874;HTU21D;51367;45.204;38.576;2023-08-08T08:15:52;34.49;46.67
64874;HTU21D;51367;45.204;38.576;2023-08-08T08:18:18;34.46;46.91
64874;HTU21D;51367;45.204;38.576;2023-08-08T08:20:46;34.52;47.07
64874;HTU21D;51367;45.204;38.576;2023-08-08T08:23:12;34.66;46.84
64874;HTU21D;51367;45.204;38.576;2023-08-08T08:25:38;34.75;46.64
64874;HTU21D;51367;45.204;38.576;2023-08-08T08:28:04;34.80;46.40
64874;HTU21D;51367;45.204;38.576;2023-08-08T08:30:31;34.79;46.26
64874;HTU21D;51367;45.204;38.576;2023-08-08T08:32:57;34.84;46.05
64874;HTU21D;51367;45.204;38.576;2023-08-08T08:35:23;34.84;45.65
64874;HTU21D;51367;45.204;38.576;2023-08-08T08:37:52;34.90;46.00
64874;HTU21D;51367;45.204;38.576;2023-08-08T08:40:18;35.05;46.01
64874;HTU21D;51367;45.204;38.576;2023-08-08T08:42:45;35.21;45.97
64874;HTU21D;51367;45.204;38.576;2023-08-08T08:45:12;35.38;45.80
64874;HTU21D;51367;45.204;38.576;2023-08-08T08:47:43;35.44;45.51
64874;HTU21D;51367;45.204;38.576;2023-08-08T08:50:11;35.42;45.42
64874;HTU21D;51367;45.204;38.576;2023-08-08T08:52:42;35.37;45.18
64874;HTU21D;51367;45.204;38.576;2023-08-08T08:55:08;35.31;45.38
64874;HTU21D;51367;45.204;38.576;2023-08-08T08:57:35;35.31;45.28
64874;HTU21D;51367;45.204;38.576;2023-08-08T09:00:01;35.34;45.44
64874;HTU21D;51367;45.204;38.576;2023-08-08T09:02:31;35.36;45.19
64874;HTU21D;51367;45.204;38.576;2023-08-08T09:04:59;35.31;45.24
64874;HTU21D;51367;45.204;38.576;2023-08-08T09:07:28;35.33;45.25
64874;HTU21D;51367;45.204;38.576;2023-08-08T09:09:55;35.30;45.13
64874;HTU21D;51367;45.204;38.576;2023-08-08T09:12:21;35.24;44.90
64874;HTU21D;51367;45.204;38.576;2023-08-08T09:14:54;35.19;45.22
64874;HTU21D;51367;45.204;38.576;2023-08-08T09:17:22;35.23;44.76
64874;HTU21D;51367;45.204;38.576;2023-08-08T09:19:53;35.22;44.32
64874;HTU21D;51367;45.204;38.576;2023-08-08T09:22:19;35.13;44.19
64874;HTU21D;51367;45.204;38.576;2023-08-08T09:24:45;35.10;44.53
64874;HTU21D;51367;45.204;38.576;2023-08-08T09:27:12;35.11;44.61
64874;HTU21D;51367;45.204;38.576;2023-08-08T09:29:38;35.15;44.66
64874;HTU21D;51367;45.204;38.576;2023-08-08T09:32:07;35.20;44.51
64874;HTU21D;51367;45.204;38.576;2023-08-08T09:34:34;35.26;44.45
64874;HTU21D;51367;45.204;38.576;2023-08-08T09:37:01;35.30;44.34
64874;HTU21D;51367;45.204;38.576;2023-08-08T09:39:28;35.29;44.42
64874;HTU21D;51367;45.204;38.576;2023-08-08T09:41:57;35.33;44.64
64874;HTU21D;51367;45.204;38.576;2023-08-08T09:44:25;35.40;44.61
64874;HTU21D;51367;45.204;38.576;2023-08-08T09:46:52;35.45;44.66
64874;HTU21D;51367;45.204;38.576;2023-08-08T09:49:19;35.54;44.52
64874;HTU21D;51367;45.204;38.576;2023-08-08T09:51:48;35.59;44.36
64874;HTU21D;51367;45.204;38.576;2023-08-08T09:54:15;35.65;44.41
64874;HTU21D;51367;45.204;38.576;2023-08-08T09:56:42;35.75;44.26
64874;HTU21D;51367;45.204;38.576;2023-08-08T09:59:09;35.80;43.59
64874;HTU21D;51367;45.204;38.576;2023-08-08T10:01:35;35.81;43.90
64874;HTU21D;51367;45.204;38.576;2023-08-08T10:04:06;35.92;43.75
64874;HTU21D;51367;45.204;38.576;2023-08-08T10:06:32;35.98;43.53
64874;HTU21D;51367;45.204;38.576;2023-08-08T10:08:59;36.00;42.90
64874;HTU21D;51367;45.204;38.576;2023-08-08T10:11:27;36.01;42.87
64874;HTU21D;51367;45.204;38.576;2023-08-08T10:13:54;36.02;43.01
64874;HTU21D;51367;45.204;38.576;2023-08-08T10:16:22;36.09;42.79
64874;HTU21D;51367;45.204;38.576;2023-08-08T10:18:56;36.12;42.63
64874;HTU21D;51367;45.204;38.576;2023-08-08T10:21:25;36.14;42.21
64874;HTU21D;51367;45.204;38.576;2023-08-08T10:24:03;36.18;42.55
64874;HTU21D;51367;45.204;38.576;2023-08-08T10:26:29;36.26;42.24
64874;HTU21D;51367;45.204;38.576;2023-08-08T10:28:56;36.28;42.06
64874;HTU21D;51367;45.204;38.576;2023-08-08T10:31:22;36.26;41.94
64874;HTU21D;51367;45.204;38.576;2023-08-08T10:33:48;36.27;42.13
64874;HTU21D;51367;45.204;38.576;2023-08-08T10:36:15;36.28;42.03
64874;HTU21D;51367;45.204;38.576;2023-08-08T10:38:48;36.28;41.78
64874;HTU21D;51367;45.204;38.576;2023-08-08T10:41:17;36.30;41.67
64874;HTU21D;51367;45.204;38.576;2023-08-08T10:43:57;36.38;41.56
64874;HTU21D;51367;45.204;38.576;2023-08-08T10:46:32;36.44;41.55
64874;HTU21D;51367;45.204;38.576;2023-08-08T10:49:00;36.53;41.23
64874;HTU21D;51367;45.204;38.576;2023-08-08T10:51:38;36.59;40.98
64874;HTU21D;51367;45.204;38.576;2023-08-08T10:54:06;36.66;41.13
64874;HTU21D;51367;45.204;38.576;2023-08-08T10:56:32;36.66;41.14
64874;HTU21D;51367;45.204;38.576;2023-08-08T10:58:58;36.64;41.36
64874;HTU21D;51367;45.204;38.576;2023-08-08T11:01:27;36.73;41.52
64874;HTU21D;51367;45.204;38.576;2023-08-08T11:03:57;36.84;41.13
64874;HTU21D;51367;45.204;38.576;2023-08-08T11:06:23;36.96;41.15
64874;HTU21D;51367;45.204;38.576;2023-08-08T11:08:49;37.04;40.67
64874;HTU21D;51367;45.204;38.576;2023-08-08T11:11:16;37.07;40.73
64874;HTU21D;51367;45.204;38.576;2023-08-08T11:13:42;37.14;40.60
64874;HTU21D;51367;45.204;38.576;2023-08-08T11:16:08;37.14;40.14
64874;HTU21D;51367;45.204;38.576;2023-08-08T11:18:35;36.97;39.94
64874;HTU21D;51367;45.204;38.576;2023-08-08T11:21:09;36.74;40.42
64874;HTU21D;51367;45.204;38.576;2023-08-08T11:23:35;36.59;40.75
64874;HTU21D;51367;45.204;38.576;2023-08-08T11:26:03;36.52;40.88
64874;HTU21D;51367;45.204;38.576;2023-08-08T11:28:29;36.55;40.97
64874;HTU21D;51367;45.204;38.576;2023-08-08T11:30:55;36.66;40.69
64874;HTU21D;51367;45.204;38.576;2023-08-08T11:33:22;36.77;40.74
64874;HTU21D;51367;45.204;38.576;2023-08-08T11:35:48;36.90;40.51
64874;HTU21D;51367;45.204;38.576;2023-08-08T11:38:15;37.07;40.30
64874;HTU21D;51367;45.204;38.576;2023-08-08T11:40:41;37.16;39.95
64874;HTU21D;51367;45.204;38.576;2023-08-08T11:43:08;37.13;40.05
64874;HTU21D;51367;45.204;38.576;2023-08-08T11:45:34;37.05;39.72
64874;HTU21D;51367;45.204;38.576;2023-08-08T11:48:00;36.86;40.13
64874;HTU21D;51367;45.204;38.576;2023-08-08T11:50:27;36.71;40.37
64874;HTU21D;51367;45.204;38.576;2023-08-08T11:52:54;36.53;40.43
64874;HTU21D;51367;45.204;38.576;2023-08-08T11:55:21;36.45;40.51
64874;HTU21D;51367;45.204;38.576;2023-08-08T11:57:53;36.51;40.95
64874;HTU21D;51367;45.204;38.576;2023-08-08T12:00:27;36.69;40.82
64874;HTU21D;51367;45.204;38.576;2023-08-08T12:02:54;36.81;40.49
64874;HTU21D;51367;45.204;38.576;2023-08-08T12:05:21;36.87;40.29
64874;HTU21D;51367;45.204;38.576;2023-08-08T12:07:48;36.91;40.26
64874;HTU21D;51367;45.204;38.576;2023-08-08T12:10:21;37.00;40.07
64874;HTU21D;51367;45.204;38.576;2023-08-08T12:12:54;37.08;39.65
64874;HTU21D;51367;45.204;38.576;2023-08-08T12:15:20;37.12;39.87
64874;HTU21D;51367;45.204;38.576;2023-08-08T12:17:46;37.22;39.93
64874;HTU21D;51367;45.204;38.576;2023-08-08T12:20:14;37.35;39.86
64874;HTU21D;51367;45.204;38.576;2023-08-08T12:22:41;37.47;39.91
64874;HTU21D;51367;45.204;38.576;2023-08-08T12:25:07;37.58;39.65
64874;HTU21D;51367;45.204;38.576;2023-08-08T12:27:34;37.64;39.40
64874;HTU21D;51367;45.204;38.576;2023-08-08T12:30:00;37.64;39.20
64874;HTU21D;51367;45.204;38.576;2023-08-08T12:32:27;37.50;39.20
64874;HTU21D;51367;45.204;38.576;2023-08-08T12:34:55;37.33;39.18
64874;HTU21D;51367;45.204;38.576;2023-08-08T12:37:22;37.14;39.47
64874;HTU21D;51367;45.204;38.576;2023-08-08T12:39:49;37.14;39.71
